Terminal Aerodrome Forecast
Issued by NWS

Current Version | Previous Version | Text Only | Print | Product List | Glossary Off
Versions: 1 2 3 4 5 6 7 8 9 10 11 12 13 14 15 16 17 18 19 20

000
FTUS41 KPBZ 231130
TAFHLG
TAF
KHLG 231130Z 2312/2412 31004KT 1/4SM FG OVC002
      TEMPO 2312/2314 4SM BR
     FM231400 33005KT 6SM BR SCT001
     FM231600 36008KT P6SM BKN040
     FM240000 01004KT P6SM SKC
     FM240600 00000KT 2SM BR SKC=

USA.gov is the U.S. government's official web portal to all federal, state and local government web resources and services.